Time;durP1;ratioP1;P1;durP2;ratioP2;P2;SDS_P1;SDS_P2;PMS_P1;PMS_P2;Temp;Humidity;BMP_temperature;BMP_pressure;BME280_temperature;BME280_humidity;BME280_pressure;Samples;Min_cycle;Max_cycle;Signal;HPM_P1;HPM_P2
2021/12/13 00:01:05;;;;;;;75.55;26.48;;;10.40;99.90;;;;;;5108044;28;19920;-69
2021/12/13 00:03:55;;;;;;;72.85;26.13;;;10.50;99.90;;;;;;5107323;28;20081;-69
2021/12/13 00:06:28;;;;;;;78.78;26.60;;;10.50;99.90;;;;;;5107537;28;20080;-69
2021/12/13 00:08:57;;;;;;;81.88;27.90;;;10.50;99.90;;;;;;5127244;27;20027;-69
2021/12/13 00:11:30;;;;;;;89.63;25.92;;;10.40;99.90;;;;;;5108467;27;20043;-69
2021/12/13 00:14:00;;;;;;;93.88;27.58;;;10.50;99.90;;;;;;5109382;28;20075;-68
2021/12/13 00:16:38;;;;;;;90.28;28.33;;;10.60;99.90;;;;;;5108118;28;20044;-69
2021/12/13 00:19:13;;;;;;;78.03;27.83;;;10.50;99.90;;;;;;5097520;28;20048;-69
2021/12/13 00:21:47;;;;;;;82.57;27.67;;;10.50;99.90;;;;;;5111723;28;20057;-69
2021/12/13 00:24:22;;;;;;;76.40;25.88;;;10.50;99.90;;;;;;5129482;28;20451;-69
2021/12/13 00:26:51;;;;;;;68.05;26.27;;;10.60;99.90;;;;;;5125525;28;20054;-69
2021/12/13 00:29:22;;;;;;;76.72;26.10;;;10.60;99.90;;;;;;5108397;28;20056;-69
2021/12/13 00:32:02;;;;;;;67.47;24.92;;;10.50;99.90;;;;;;5107648;28;20044;-69
2021/12/13 00:34:32;;;;;;;64.60;25.60;;;10.60;99.90;;;;;;5107718;28;20075;-69
2021/12/13 00:37:07;;;;;;;57.05;23.55;;;10.60;99.90;;;;;;5130950;28;20039;-68
2021/12/13 00:39:59;;;;;;;65.75;26.13;;;10.60;99.90;;;;;;5107999;28;20051;-69
2021/12/13 00:42:33;;;;;;;61.72;24.50;;;10.60;99.90;;;;;;5094681;28;20060;-69
2021/12/13 00:45:05;;;;;;;60.45;25.13;;;10.70;99.90;;;;;;5112714;28;20047;-69
2021/12/13 00:47:34;;;;;;;68.38;25.98;;;10.60;99.90;;;;;;5107251;28;20044;-69
2021/12/13 00:50:23;;;;;;;66.93;26.42;;;10.60;99.90;;;;;;5132066;28;20067;-69
2021/12/13 00:52:52;;;;;;;65.85;27.27;;;10.50;99.90;;;;;;5108200;28;20074;-69
2021/12/13 00:55:22;;;;;;;56.53;24.45;;;10.60;99.90;;;;;;5108419;28;20056;-69
2021/12/13 00:58:12;;;;;;;71.60;26.52;;;10.60;99.90;;;;;;5110923;27;20086;-68
2021/12/13 01:00:43;;;;;;;61.70;24.83;;;10.60;99.90;;;;;;5123512;27;20051;-69
2021/12/13 01:03:28;;;;;;;67.57;25.15;;;10.50;99.90;;;;;;5130866;27;20503;-69
2021/12/13 01:06:34;;;;;;;57.38;25.58;;;10.50;99.90;;;;;;5116142;27;20048;-68
2021/12/13 01:09:37;;;;;;;59.90;24.67;;;10.50;99.90;;;;;;5127270;27;20064;-69
2021/12/13 01:12:08;;;;;;;57.85;23.83;;;10.50;99.90;;;;;;5110170;28;20129;-68
2021/12/13 01:14:59;;;;;;;63.88;25.80;;;10.50;99.90;;;;;;5114770;28;20051;-69
2021/12/13 01:17:56;;;;;;;63.45;24.65;;;10.60;99.90;;;;;;5108066;28;20052;-69
2021/12/13 01:20:43;;;;;;;64.50;25.63;;;10.50;99.90;;;;;;5110188;28;20059;-68
2021/12/13 01:23:17;;;;;;;71.47;24.48;;;10.50;99.90;;;;;;5108582;27;20043;-69
2021/12/13 01:26:13;;;;;;;55.92;23.42;;;10.50;99.90;;;;;;5116617;28;20062;-69
2021/12/13 01:28:44;;;;;;;56.45;23.73;;;10.50;99.90;;;;;;5112327;27;20130;-69
2021/12/13 01:31:16;;;;;;;60.65;24.65;;;10.60;99.90;;;;;;5103728;28;20093;-69
2021/12/13 01:33:45;;;;;;;54.85;23.92;;;10.60;99.90;;;;;;5127850;27;20104;-69
2021/12/13 01:36:18;;;;;;;54.40;22.33;;;10.60;99.90;;;;;;5111478;28;20063;-69
2021/12/13 01:39:01;;;;;;;54.00;22.67;;;10.60;99.90;;;;;;5128805;27;20281;-69
2021/12/13 01:41:29;;;;;;;49.33;20.85;;;10.50;99.90;;;;;;5130890;27;20071;-69
2021/12/13 01:43:59;;;;;;;49.55;21.73;;;10.60;99.90;;;;;;5131258;27;20044;-69
2021/12/13 01:46:26;;;;;;;43.78;20.83;;;10.60;99.90;;;;;;5131188;27;20130;-69
2021/12/13 01:48:53;;;;;;;45.53;19.20;;;10.50;99.90;;;;;;5110257;28;20056;-69
2021/12/13 01:51:24;;;;;;;33.42;18.60;;;10.60;99.90;;;;;;5122991;27;20035;-69
2021/12/13 01:53:58;;;;;;;40.88;19.30;;;10.60;99.90;;;;;;5110310;28;20047;-68
2021/12/13 01:59:28;;;;;;;33.17;16.67;;;10.50;99.90;;;;;;5124016;28;20047;-69
2021/12/13 02:01:58;;;;;;;26.83;14.82;;;10.60;99.90;;;;;;5133946;27;20027;-69
2021/12/13 02:04:24;;;;;;;31.48;16.17;;;10.60;99.90;;;;;;5104024;28;20604;-69
2021/12/13 02:06:55;;;;;;;25.95;14.38;;;10.60;99.90;;;;;;5108687;28;20069;-68
2021/12/13 02:09:26;;;;;;;28.50;14.13;;;10.60;99.90;;;;;;5111131;28;20048;-69
2021/12/13 02:11:58;;;;;;;24.80;13.90;;;10.60;99.90;;;;;;5104811;28;20056;-69
2021/12/13 02:14:29;;;;;;;25.58;15.35;;;10.50;99.90;;;;;;5112281;27;20816;-69
2021/12/13 02:17:08;;;;;;;27.13;15.48;;;10.60;99.90;;;;;;5110549;28;20122;-69
2021/12/13 02:19:57;;;;;;;27.73;14.93;;;10.50;99.90;;;;;;5111043;28;20039;-69
2021/12/13 02:22:44;;;;;;;31.08;16.27;;;10.50;99.90;;;;;;5114350;28;20058;-69
2021/12/13 02:25:19;;;;;;;27.00;14.82;;;10.50;99.90;;;;;;5109829;28;20062;-69
2021/12/13 02:27:55;;;;;;;24.77;15.70;;;10.60;99.90;;;;;;5108137;28;20056;-69
2021/12/13 02:30:50;;;;;;;27.45;14.98;;;10.50;99.90;;;;;;5108892;28;20078;-69
2021/12/13 02:33:31;;;;;;;31.45;16.65;;;10.50;99.90;;;;;;5108998;28;20400;-69
2021/12/13 02:36:08;;;;;;;31.63;16.65;;;10.50;99.90;;;;;;5108292;28;20043;-69
2021/12/13 02:38:36;;;;;;;33.92;17.25;;;10.50;99.90;;;;;;5107811;28;20125;-69
2021/12/13 02:41:03;;;;;;;33.60;17.55;;;10.50;99.90;;;;;;5109724;28;20044;-69
2021/12/13 02:43:33;;;;;;;30.95;17.92;;;10.50;99.90;;;;;;5127564;27;20087;-69
2021/12/13 02:45:59;;;;;;;;;;;10.40;99.90;;;;;;5109064;28;20043;-69
2021/12/13 02:48:39;;;;;;;36.58;20.00;;;10.50;99.90;;;;;;5107657;28;19930;-69
2021/12/13 02:51:08;;;;;;;37.88;20.15;;;10.50;99.90;;;;;;5129272;27;20043;-69
2021/12/13 02:53:46;;;;;;;38.80;19.97;;;10.50;99.90;;;;;;5113264;27;20472;-69
2021/12/13 02:56:14;;;;;;;38.90;19.13;;;10.50;99.90;;;;;;5109358;28;20071;-69
2021/12/13 02:58:41;;;;;;;35.50;19.60;;;10.50;99.90;;;;;;5110152;28;20043;-69
2021/12/13 03:01:30;;;;;;;38.65;20.52;;;10.50;99.90;;;;;;5108311;28;20082;-69
2021/12/13 03:04:04;;;;;;;36.10;20.07;;;10.50;99.90;;;;;;5132446;27;20046;-68
2021/12/13 03:06:37;;;;;;;39.42;20.30;;;10.40;99.90;;;;;;5127673;27;20035;-69
2021/12/13 03:09:10;;;;;;;37.15;20.35;;;10.40;99.90;;;;;;5108226;28;20491;-69
2021/12/13 03:11:36;;;;;;;38.53;19.98;;;10.40;99.90;;;;;;5110417;28;20055;-68
2021/12/13 03:14:15;;;;;;;38.90;20.40;;;10.40;99.90;;;;;;5109836;28;20108;-69
2021/12/13 03:16:52;;;;;;;35.17;18.50;;;10.40;99.90;;;;;;5109521;28;20634;-69
2021/12/13 03:19:43;;;;;;;31.70;18.05;;;10.40;99.90;;;;;;5107290;28;20050;-69
2021/12/13 03:22:20;;;;;;;33.63;18.63;;;10.50;99.90;;;;;;5109996;28;20039;-69
2021/12/13 03:25:05;;;;;;;33.45;18.27;;;10.40;99.90;;;;;;5106945;28;20043;-69
2021/12/13 03:28:13;;;;;;;32.03;19.00;;;10.50;99.90;;;;;;5107016;28;20076;-69
2021/12/13 03:30:51;;;;;;;32.95;18.30;;;10.50;99.90;;;;;;5104630;28;20100;-68
2021/12/13 03:33:40;;;;;;;36.90;17.00;;;10.50;99.90;;;;;;5106729;28;20068;-69
2021/12/13 03:36:12;;;;;;;39.70;19.17;;;10.50;99.90;;;;;;5107506;28;20055;-69
2021/12/13 03:38:44;;;;;;;33.95;18.02;;;10.50;99.90;;;;;;5091770;28;20132;-69
2021/12/13 03:41:16;;;;;;;30.02;17.10;;;10.40;99.90;;;;;;5124125;28;20051;-69
2021/12/13 03:43:50;;;;;;;28.05;16.25;;;10.40;99.90;;;;;;5097115;27;20055;-69
2021/12/13 03:46:19;;;;;;;32.97;15.52;;;10.40;99.90;;;;;;5127260;27;20040;-69
2021/12/13 03:48:46;;;;;;;27.60;14.77;;;10.40;99.90;;;;;;5102709;28;20055;-69
2021/12/13 03:51:16;;;;;;;26.20;13.63;;;10.40;99.90;;;;;;5108492;28;20051;-69
2021/12/13 03:53:45;;;;;;;27.90;13.95;;;10.40;99.90;;;;;;5123333;27;20050;-69
2021/12/13 03:56:15;;;;;;;26.15;14.13;;;10.30;99.90;;;;;;5109824;28;20043;-68
2021/12/13 03:58:48;;;;;;;22.83;13.45;;;10.30;99.90;;;;;;5109660;28;20063;-69
2021/12/13 04:01:16;;;;;;;25.75;13.40;;;10.30;99.90;;;;;;5103115;28;20448;-69
2021/12/13 04:03:45;;;;;;;22.75;12.98;;;10.30;99.90;;;;;;5128139;28;20044;-69
2021/12/13 04:06:16;;;;;;;20.40;12.85;;;10.30;99.90;;;;;;5115907;27;20046;-69
2021/12/13 04:08:45;;;;;;;19.88;12.25;;;10.30;99.90;;;;;;5111014;28;20054;-69
2021/12/13 04:11:12;;;;;;;23.60;12.77;;;10.30;99.90;;;;;;5106166;28;20036;-68
2021/12/13 04:13:53;;;;;;;22.63;12.98;;;10.20;99.90;;;;;;5108725;28;20054;-68
2021/12/13 04:16:48;;;;;;;17.98;10.93;;;10.20;99.90;;;;;;5118492;28;20032;-69
2021/12/13 04:19:19;;;;;;;20.05;13.05;;;10.20;99.90;;;;;;5093859;28;20044;-69
2021/12/13 04:22:00;;;;;;;19.60;11.30;;;10.20;99.90;;;;;;5112410;28;20044;-69
2021/12/13 04:24:43;;;;;;;21.75;12.57;;;10.20;99.90;;;;;;5121556;28;20055;-69
2021/12/13 04:27:24;;;;;;;18.88;11.35;;;10.20;99.90;;;;;;5112874;28;20101;-69
2021/12/13 04:29:54;;;;;;;20.65;10.70;;;10.10;99.90;;;;;;5108968;28;20126;-69
2021/12/13 04:32:33;;;;;;;26.83;12.98;;;10.20;99.90;;;;;;5094462;28;20031;-69
2021/12/13 04:35:03;;;;;;;21.60;12.03;;;10.20;99.90;;;;;;5113117;27;20512;-69
2021/12/13 04:37:34;;;;;;;25.23;13.27;;;10.20;99.90;;;;;;5107324;28;20103;-69
2021/12/13 04:40:07;;;;;;;22.23;11.98;;;10.30;99.90;;;;;;5113068;28;20058;-69
2021/12/13 04:42:33;;;;;;;22.85;12.40;;;10.20;99.90;;;;;;5105020;28;20377;-69
2021/12/13 04:45:00;;;;;;;22.30;12.48;;;10.20;99.90;;;;;;5115556;27;20054;-69
2021/12/13 04:47:39;;;;;;;22.70;12.48;;;10.00;99.90;;;;;;5110838;28;20039;-69
2021/12/13 04:50:15;;;;;;;20.25;12.82;;;10.00;99.90;;;;;;5111267;27;20048;-69
2021/12/13 04:52:41;;;;;;;18.17;12.00;;;10.00;99.90;;;;;;5129535;27;20071;-69
2021/12/13 04:55:14;;;;;;;21.25;11.30;;;9.90;99.90;;;;;;5116625;28;20039;-69
2021/12/13 04:57:41;;;;;;;21.42;12.38;;;9.90;99.90;;;;;;5111043;28;20075;-69
2021/12/13 05:00:14;;;;;;;18.38;11.57;;;9.80;99.90;;;;;;5129432;27;20032;-69
2021/12/13 05:02:46;;;;;;;22.27;12.68;;;9.80;99.90;;;;;;5113082;27;20069;-69
2021/12/13 05:05:13;;;;;;;22.63;12.65;;;9.90;99.90;;;;;;5109990;28;20055;-69
2021/12/13 05:07:42;;;;;;;18.85;12.02;;;9.90;99.90;;;;;;5111783;28;20077;-69
2021/12/13 05:10:08;;;;;;;21.90;11.38;;;9.90;99.90;;;;;;5112125;28;20072;-68
2021/12/13 05:12:34;;;;;;;24.67;12.00;;;9.80;99.90;;;;;;5110430;28;20105;-69
2021/12/13 05:15:05;;;;;;;20.77;13.00;;;9.70;99.90;;;;;;5116676;28;20036;-69
2021/12/13 05:17:42;;;;;;;23.77;13.40;;;9.70;99.90;;;;;;5110401;27;20075;-69
2021/12/13 05:20:10;;;;;;;24.35;12.10;;;9.70;99.90;;;;;;5112305;28;20170;-69
2021/12/13 05:23:05;;;;;;;23.13;12.50;;;9.70;99.90;;;;;;5114812;28;20058;-69
2021/12/13 05:25:31;;;;;;;21.58;12.23;;;9.60;99.90;;;;;;5101277;28;20169;-69
2021/12/13 05:28:01;;;;;;;21.98;12.15;;;9.80;99.90;;;;;;5106746;28;20071;-69
2021/12/13 05:30:27;;;;;;;;;;;9.80;99.90;;;;;;5106981;28;20075;-69
2021/12/13 05:33:04;;;;;;;21.73;12.13;;;9.80;99.90;;;;;;5088313;28;19924;-69
2021/12/13 05:35:34;;;;;;;21.33;12.15;;;9.80;99.90;;;;;;5108106;28;20040;-69
2021/12/13 05:38:05;;;;;;;22.55;11.75;;;9.80;99.90;;;;;;5121743;27;20043;-69
2021/12/13 05:40:44;;;;;;;21.55;11.57;;;9.80;99.90;;;;;;5110852;28;20103;-70
2021/12/13 05:43:28;;;;;;;22.58;11.60;;;9.80;99.90;;;;;;5044388;28;20131;-68
2021/12/13 05:46:01;;;;;;;20.25;11.00;;;9.90;99.90;;;;;;5084247;28;20047;-69
2021/12/13 05:48:41;;;;;;;22.25;11.38;;;9.90;99.90;;;;;;5083635;28;20466;-68
2021/12/13 05:51:30;;;;;;;17.30;11.32;;;9.90;99.90;;;;;;5083193;28;20056;-69
2021/12/13 05:54:12;;;;;;;15.60;9.60;;;9.90;99.90;;;;;;5082696;28;20047;-70
2021/12/13 05:56:55;;;;;;;17.23;9.93;;;9.90;99.90;;;;;;5062147;28;20050;-70
2021/12/13 05:59:27;;;;;;;12.35;8.27;;;10.00;99.90;;;;;;5093091;28;20297;-70
2021/12/13 06:02:14;;;;;;;15.50;8.38;;;9.90;99.90;;;;;;5085153;27;20043;-70
2021/12/13 06:04:58;;;;;;;12.30;9.05;;;9.90;99.90;;;;;;5075037;28;20071;-70
2021/12/13 06:07:28;;;;;;;13.88;9.27;;;9.90;99.90;;;;;;5091351;28;20047;-70
2021/12/13 06:10:09;;;;;;;17.35;8.40;;;10.00;99.90;;;;;;5092125;28;20097;-71
2021/12/13 06:12:51;;;;;;;16.23;9.60;;;10.10;99.90;;;;;;5101295;28;20090;-70
2021/12/13 06:15:17;;;;;;;14.38;8.98;;;10.10;99.90;;;;;;5078822;28;20048;-70
2021/12/13 06:18:03;;;;;;;13.80;9.70;;;10.00;99.90;;;;;;5105141;28;20112;-70
2021/12/13 06:20:43;;;;;;;16.17;10.00;;;10.20;99.90;;;;;;5078093;28;20032;-70
2021/12/13 06:23:15;;;;;;;15.60;9.50;;;10.10;99.90;;;;;;5085247;28;20054;-71
2021/12/13 06:25:44;;;;;;;15.10;9.93;;;10.00;99.90;;;;;;5079411;28;20062;-72
2021/12/13 06:28:29;;;;;;;21.02;11.13;;;10.00;99.90;;;;;;5055081;28;20103;-71
2021/12/13 06:31:07;;;;;;;19.35;11.50;;;10.00;99.90;;;;;;5081769;28;20049;-68
2021/12/13 06:33:52;;;;;;;16.80;11.93;;;9.90;99.90;;;;;;5062014;28;20479;-69
2021/12/13 06:36:49;;;;;;;15.88;11.80;;;10.00;99.90;;;;;;5059093;28;20040;-71
2021/12/13 06:39:19;;;;;;;19.88;12.05;;;10.20;99.90;;;;;;5058449;28;20090;-71
2021/12/13 06:41:58;;;;;;;21.15;13.07;;;10.20;99.90;;;;;;5059152;28;20053;-71
2021/12/13 06:44:31;;;;;;;18.33;13.15;;;10.10;99.90;;;;;;5067573;28;20091;-70
2021/12/13 06:47:11;;;;;;;17.65;12.68;;;10.10;99.90;;;;;;5082959;28;20135;-71
2021/12/13 06:49:41;;;;;;;;;;;10.30;99.90;;;;;;5075455;28;20044;-71
2021/12/13 06:52:13;;;;;;;19.35;13.15;;;10.20;99.90;;;;;;5086075;28;19928;-71
2021/12/13 06:54:44;;;;;;;22.50;14.00;;;10.10;99.90;;;;;;5062633;28;20065;-72
2021/12/13 06:57:15;;;;;;;26.02;14.43;;;10.20;99.90;;;;;;5042932;28;20045;-70
2021/12/13 06:59:51;;;;;;;22.65;15.60;;;10.30;99.90;;;;;;5050192;28;20241;-69
2021/12/13 07:02:26;;;;;;;24.33;15.77;;;10.30;99.90;;;;;;5055870;28;20052;-69
2021/12/13 07:05:10;;;;;;;21.52;14.98;;;10.20;99.90;;;;;;5047354;28;20052;-69
2021/12/13 07:07:55;;;;;;;24.60;15.82;;;10.10;99.90;;;;;;5055778;28;20041;-70
2021/12/13 07:10:40;;;;;;;24.13;15.93;;;10.10;99.90;;;;;;5046211;28;20584;-69
2021/12/13 07:13:28;;;;;;;25.23;17.30;;;10.00;99.90;;;;;;5057599;28;20052;-69
2021/12/13 07:16:01;;;;;;;27.77;17.45;;;10.00;99.90;;;;;;5049569;28;20064;-69
2021/12/13 07:18:52;;;;;;;29.30;18.25;;;9.90;99.90;;;;;;5067507;28;24896;-69
2021/12/13 07:21:23;;;;;;;30.38;17.98;;;9.90;99.90;;;;;;5076117;28;20129;-70
2021/12/13 07:23:57;;;;;;;34.08;20.25;;;9.90;99.90;;;;;;5070734;28;20177;-69
2021/12/13 07:26:37;;;;;;;31.42;20.85;;;9.90;99.90;;;;;;5082183;28;20064;-69
2021/12/13 07:29:05;;;;;;;;;;;9.90;99.90;;;;;;5070111;28;20060;-67
2021/12/13 07:31:31;;;;;;;33.92;20.33;;;9.90;99.90;;;;;;5087350;28;19927;-67
2021/12/13 07:34:16;;;;;;;27.90;19.17;;;9.90;99.90;;;;;;5068836;28;20044;-67
2021/12/13 07:36:52;;;;;;;31.95;20.35;;;10.00;99.90;;;;;;5061526;28;20071;-67
2021/12/13 07:39:18;;;;;;;37.10;21.52;;;9.90;99.90;;;;;;5066963;28;20473;-67
2021/12/13 07:41:51;;;;;;;35.25;22.70;;;10.00;99.90;;;;;;5054414;28;20057;-67
2021/12/13 07:44:36;;;;;;;37.70;23.55;;;10.10;99.90;;;;;;5051246;28;20056;-67
2021/12/13 07:47:17;;;;;;;33.30;22.63;;;10.00;99.90;;;;;;5082739;28;20116;-67
2021/12/13 07:49:50;;;;;;;34.45;23.33;;;10.00;99.90;;;;;;5080005;28;20478;-67
2021/12/13 07:52:26;;;;;;;36.55;24.77;;;10.00;99.90;;;;;;5092760;28;20036;-67
2021/12/13 07:54:53;;;;;;;35.90;23.17;;;10.00;99.90;;;;;;5075768;28;20052;-67
2021/12/13 07:57:31;;;;;;;36.13;24.20;;;10.10;99.90;;;;;;5080609;28;20048;-67
2021/12/13 07:59:59;;;;;;;37.17;23.40;;;10.00;99.90;;;;;;5079407;28;20054;-67
2021/12/13 08:02:30;;;;;;;38.70;23.88;;;10.00;99.90;;;;;;5076892;28;20131;-67
2021/12/13 08:05:22;;;;;;;38.28;25.05;;;10.00;99.90;;;;;;5072342;28;20067;-67
2021/12/13 08:07:54;;;;;;;31.25;21.15;;;10.10;99.90;;;;;;5082801;28;20382;-66
2021/12/13 08:10:28;;;;;;;38.00;23.33;;;10.20;99.90;;;;;;5070359;28;20136;-67
2021/12/13 08:13:03;;;;;;;35.50;24.48;;;10.30;99.90;;;;;;5080703;28;20040;-66
2021/12/13 08:15:47;;;;;;;35.85;23.15;;;10.30;99.90;;;;;;5057758;28;20075;-67
2021/12/13 08:18:35;;;;;;;34.90;23.42;;;10.30;99.90;;;;;;5073274;28;20053;-67
2021/12/13 08:21:07;;;;;;;40.42;25.75;;;10.20;99.90;;;;;;5053407;28;20165;-66
2021/12/13 08:23:54;;;;;;;36.78;23.58;;;10.10;99.90;;;;;;5055560;28;20051;-67
2021/12/13 08:26:29;;;;;;;36.55;24.38;;;10.20;99.90;;;;;;5085454;28;20099;-67
2021/12/13 08:28:58;;;;;;;45.42;23.95;;;10.00;99.90;;;;;;5073866;28;20044;-67
2021/12/13 08:31:27;;;;;;;37.90;24.80;;;10.00;99.90;;;;;;5059568;28;20083;-67
2021/12/13 08:34:27;;;;;;;36.63;24.45;;;10.00;99.90;;;;;;5050391;28;20055;-67
2021/12/13 08:36:53;;;;;;;34.30;22.63;;;10.00;99.90;;;;;;5065355;28;20048;-66
2021/12/13 08:39:32;;;;;;;33.20;22.95;;;10.00;99.90;;;;;;5055944;28;20052;-66
2021/12/13 08:42:09;;;;;;;36.22;23.23;;;10.10;99.90;;;;;;5067518;28;20348;-66
2021/12/13 08:44:40;;;;;;;31.95;22.67;;;10.10;99.90;;;;;;5073365;28;20080;-66
2021/12/13 08:47:11;;;;;;;35.10;24.08;;;10.00;99.90;;;;;;5075729;28;20044;-66
2021/12/13 08:49:49;;;;;;;31.85;22.33;;;10.20;99.90;;;;;;5069425;28;20044;-67
2021/12/13 08:52:26;;;;;;;32.55;21.27;;;10.10;99.90;;;;;;5080429;28;20110;-67
2021/12/13 08:54:55;;;;;;;34.47;23.30;;;10.10;99.90;;;;;;5073834;28;20144;-67
2021/12/13 08:57:45;;;;;;;35.25;22.73;;;10.10;99.90;;;;;;5082907;28;20055;-67
2021/12/13 09:00:13;;;;;;;31.40;22.13;;;10.30;99.90;;;;;;5057621;28;20044;-67
2021/12/13 09:02:47;;;;;;;36.08;23.73;;;10.30;99.90;;;;;;5059744;28;20048;-66
2021/12/13 09:05:32;;;;;;;35.30;23.70;;;10.10;99.90;;;;;;5059793;28;20048;-67
2021/12/13 09:08:05;;;;;;;32.05;21.30;;;10.10;99.90;;;;;;5057198;28;20500;-67
2021/12/13 09:10:46;;;;;;;31.88;22.42;;;10.20;99.90;;;;;;5048638;28;20394;-67
2021/12/13 09:13:15;;;;;;;31.38;21.67;;;10.20;99.90;;;;;;5061256;28;20044;-67
2021/12/13 09:15:42;;;;;;;34.97;22.73;;;10.10;99.90;;;;;;5048278;28;20059;-68
2021/12/13 09:18:09;;;;;;;32.45;22.27;;;10.10;99.90;;;;;;5057798;28;20048;-67
2021/12/13 09:20:45;;;;;;;28.80;21.10;;;10.00;99.90;;;;;;5071225;28;20072;-67
2021/12/13 09:23:19;;;;;;;32.55;21.15;;;10.10;99.90;;;;;;5067609;28;20139;-67
2021/12/13 09:25:45;;;;;;;34.55;22.23;;;10.00;99.90;;;;;;5030115;28;20056;-67
2021/12/13 09:28:13;;;;;;;29.35;20.48;;;10.00;99.90;;;;;;5074357;28;20044;-67
2021/12/13 09:30:53;;;;;;;31.40;21.73;;;10.10;99.90;;;;;;5088621;28;20054;-66
2021/12/13 09:33:29;;;;;;;31.23;22.02;;;10.00;99.90;;;;;;5089846;28;20057;-67
2021/12/13 09:36:03;;;;;;;35.67;21.83;;;10.00;99.90;;;;;;5104927;28;20081;-67
2021/12/13 09:39:04;;;;;;;30.00;21.52;;;10.00;99.90;;;;;;5083440;27;20058;-67
2021/12/13 09:41:41;;;;;;;29.48;20.55;;;10.00;99.90;;;;;;5087335;28;20048;-67
2021/12/13 09:44:13;;;;;;;28.27;20.48;;;10.10;99.90;;;;;;5093440;28;20062;-67
2021/12/13 09:46:39;;;;;;;30.90;22.35;;;10.20;99.90;;;;;;5101696;28;20396;-67
2021/12/13 09:49:21;;;;;;;32.72;21.17;;;10.00;99.90;;;;;;5093390;28;20059;-67
2021/12/13 09:52:07;;;;;;;30.77;21.63;;;10.00;99.90;;;;;;5100927;28;20066;-67
2021/12/13 09:54:43;;;;;;;29.27;20.70;;;10.10;99.90;;;;;;5090642;28;20056;-67
2021/12/13 09:57:14;;;;;;;30.05;20.20;;;10.20;99.90;;;;;;5102289;28;20075;-67
2021/12/13 09:59:43;;;;;;;29.10;20.58;;;10.30;99.90;;;;;;5071908;28;20060;-67
2021/12/13 10:02:16;;;;;;;32.22;20.80;;;10.20;99.90;;;;;;5098469;28;20055;-67
2021/12/13 10:04:44;;;;;;;27.17;18.67;;;10.20;99.90;;;;;;5089250;28;20043;-67
2021/12/13 10:07:18;;;;;;;26.30;17.92;;;10.40;99.90;;;;;;5084682;28;20108;-67
2021/12/13 10:09:51;;;;;;;29.77;19.98;;;10.40;99.90;;;;;;5090771;28;20051;-67
2021/12/13 10:12:22;;;;;;;27.50;20.17;;;10.10;99.90;;;;;;5099660;28;20074;-67
2021/12/13 10:14:52;;;;;;;27.45;19.58;;;10.20;99.90;;;;;;5090938;28;20085;-67
2021/12/13 10:17:21;;;;;;;29.13;18.23;;;10.10;99.90;;;;;;5100612;28;20052;-67
2021/12/13 10:19:51;;;;;;;25.90;18.85;;;10.10;99.90;;;;;;5106324;27;20048;-67
2021/12/13 10:22:25;;;;;;;28.45;18.52;;;10.10;99.90;;;;;;5097426;28;20044;-67
2021/12/13 10:25:07;;;;;;;25.05;18.15;;;10.00;99.90;;;;;;5076014;28;20130;-67
2021/12/13 10:27:33;;;;;;;27.73;17.98;;;10.10;99.90;;;;;;5080241;28;20053;-68
2021/12/13 10:30:05;;;;;;;28.00;19.33;;;10.10;99.90;;;;;;5077045;28;20045;-67
2021/12/13 10:32:35;;;;;;;25.45;17.55;;;10.00;99.90;;;;;;5079701;28;20048;-67
2021/12/13 10:35:03;;;;;;;;;;;10.00;99.90;;;;;;5051844;28;20053;-67
2021/12/13 10:37:39;;;;;;;27.02;18.25;;;10.00;99.90;;;;;;5072523;28;19920;-67
2021/12/13 10:40:17;;;;;;;25.83;16.95;;;10.20;99.90;;;;;;5072252;28;20060;-67
2021/12/13 10:42:53;;;;;;;24.90;17.25;;;10.20;99.90;;;;;;5071356;28;20079;-68
2021/12/13 10:45:34;;;;;;;26.17;18.48;;;10.20;99.90;;;;;;5085185;28;20412;-67
2021/12/13 10:48:05;;;;;;;27.67;18.42;;;10.30;99.90;;;;;;5091895;28;20363;-67
2021/12/13 10:50:37;;;;;;;27.23;17.45;;;10.10;99.90;;;;;;5110702;28;20325;-67
2021/12/13 10:53:06;;;;;;;26.02;18.33;;;10.20;99.90;;;;;;5089234;28;20048;-67
2021/12/13 10:55:44;;;;;;;28.40;16.87;;;10.30;99.90;;;;;;5080672;28;20048;-67
2021/12/13 10:58:13;;;;;;;24.20;16.42;;;10.40;99.90;;;;;;5093951;28;20291;-67
2021/12/13 11:00:46;;;;;;;24.33;16.90;;;10.30;99.90;;;;;;5100913;28;20103;-67
2021/12/13 11:03:19;;;;;;;25.45;16.13;;;10.40;99.90;;;;;;5089640;28;20056;-67
2021/12/13 11:05:45;;;;;;;27.60;16.90;;;10.60;99.90;;;;;;5100663;28;20056;-68
2021/12/13 11:08:15;;;;;;;23.70;16.67;;;10.60;99.90;;;;;;5087190;28;20047;-67
2021/12/13 11:10:50;;;;;;;25.85;17.40;;;10.50;99.90;;;;;;5096825;28;20048;-67
2021/12/13 11:13:18;;;;;;;25.77;17.52;;;10.30;99.90;;;;;;5089259;28;20116;-67
2021/12/13 11:15:47;;;;;;;25.15;16.50;;;10.30;99.90;;;;;;5063546;28;20047;-67
2021/12/13 11:18:17;;;;;;;22.77;15.90;;;10.30;99.90;;;;;;5071752;28;20052;-68
2021/12/13 11:20:50;;;;;;;28.25;17.25;;;10.30;99.90;;;;;;5076781;28;20527;-68
2021/12/13 11:23:18;;;;;;;25.42;16.23;;;10.20;99.90;;;;;;5069047;28;20054;-67
2021/12/13 11:25:52;;;;;;;25.58;16.35;;;10.20;99.90;;;;;;5076335;28;20049;-67
2021/12/13 11:28:20;;;;;;;22.25;15.82;;;10.20;99.90;;;;;;5068510;28;20074;-69
2021/12/13 11:30:48;;;;;;;24.48;16.75;;;10.20;99.90;;;;;;5076039;28;20119;-65
2021/12/13 11:33:22;;;;;;;24.58;16.63;;;10.40;99.90;;;;;;5073338;28;20066;-70
2021/12/13 11:36:39;;;;;;;24.05;16.27;;;10.40;99.90;;;;;;5086241;28;20107;-71
2021/12/13 11:39:26;;;;;;;25.17;16.38;;;10.40;99.90;;;;;;5057517;28;20078;-70
2021/12/13 11:42:17;;;;;;;23.40;16.90;;;10.40;99.90;;;;;;5072804;28;20056;-72
2021/12/13 11:45:26;;;;;;;23.63;15.63;;;10.40;99.90;;;;;;5054630;28;20056;-71
2021/12/13 11:48:15;;;;;;;23.80;15.95;;;10.40;99.90;;;;;;5045283;28;20045;-72
2021/12/13 11:51:00;;;;;;;23.27;15.32;;;10.30;99.90;;;;;;5086912;28;20047;-71
2021/12/13 11:54:02;;;;;;;23.58;16.52;;;10.40;99.90;;;;;;5074953;28;20613;-71
2021/12/13 11:57:08;;;;;;;23.08;15.60;;;10.40;99.90;;;;;;5074236;28;20702;-70
2021/12/13 12:00:02;;;;;;;28.10;17.23;;;10.30;99.90;;;;;;5078347;28;20106;-71
2021/12/13 12:03:05;;;;;;;27.70;17.90;;;10.30;99.90;;;;;;5128093;27;20138;-71
2021/12/13 12:06:09;;;;;;;24.73;16.40;;;10.40;99.90;;;;;;5067297;28;20064;-71
2021/12/13 12:09:17;;;;;;;22.13;15.40;;;10.40;99.90;;;;;;5078676;28;20422;-70
2021/12/13 12:12:20;;;;;;;21.42;16.02;;;10.40;99.90;;;;;;5014208;28;20099;-68
2021/12/13 12:14:50;;;;;;;22.90;16.33;;;10.40;99.90;;;;;;5004693;28;20053;-68
2021/12/13 12:17:17;;;;;;;23.63;16.65;;;10.30;99.90;;;;;;5007324;28;20435;-68
2021/12/13 12:19:45;;;;;;;23.42;15.40;;;10.30;99.90;;;;;;5015543;28;20063;-69
2021/12/13 12:22:16;;;;;;;22.40;15.50;;;10.40;99.90;;;;;;5010093;28;20076;-69
2021/12/13 12:24:50;;;;;;;23.00;15.13;;;10.30;99.90;;;;;;5028031;28;20070;-69
2021/12/13 12:27:30;;;;;;;24.48;15.80;;;10.40;99.90;;;;;;5039207;28;20059;-69
2021/12/13 12:30:06;;;;;;;23.65;16.02;;;10.60;99.90;;;;;;5013719;28;20087;-68
2021/12/13 12:32:43;;;;;;;24.67;16.15;;;10.50;99.90;;;;;;5036623;28;20380;-68
2021/12/13 12:35:42;;;;;;;22.85;15.05;;;10.50;99.90;;;;;;5006770;28;20045;-68
2021/12/13 12:38:08;;;;;;;23.98;15.90;;;10.50;99.90;;;;;;5026744;28;20038;-69
2021/12/13 12:40:47;;;;;;;23.52;16.08;;;10.40;99.90;;;;;;5034755;28;20068;-68
2021/12/13 12:43:22;;;;;;;23.02;16.33;;;10.30;99.90;;;;;;4989506;28;20549;-68
2021/12/13 12:45:59;;;;;;;23.35;14.95;;;10.40;99.90;;;;;;5042033;28;20048;-68
2021/12/13 12:48:27;;;;;;;22.00;15.50;;;10.40;99.90;;;;;;5081277;28;20052;-68
2021/12/13 12:51:06;;;;;;;22.30;14.63;;;10.30;99.90;;;;;;5096968;28;20044;-68
2021/12/13 12:53:42;;;;;;;22.20;16.15;;;10.30;99.90;;;;;;5067934;28;20044;-68
2021/12/13 12:56:32;;;;;;;20.65;14.57;;;10.40;99.90;;;;;;5080836;28;20096;-69
2021/12/13 12:59:09;;;;;;;23.40;15.82;;;10.40;99.90;;;;;;5070893;28;20047;-68
2021/12/13 13:01:40;;;;;;;21.40;16.02;;;10.40;99.90;;;;;;5078908;28;20110;-68
2021/12/13 13:04:14;;;;;;;21.63;15.45;;;10.40;99.90;;;;;;5065347;28;20625;-68
2021/12/13 13:06:55;;;;;;;23.35;15.73;;;10.30;99.90;;;;;;5066878;28;20044;-68
2021/12/13 13:09:22;;;;;;;22.20;15.13;;;10.30;99.90;;;;;;5060403;28;20052;-68
2021/12/13 13:11:51;;;;;;;24.50;16.58;;;10.30;99.90;;;;;;5063142;28;20048;-68
2021/12/13 13:14:22;;;;;;;25.73;16.25;;;10.30;99.90;;;;;;5058503;28;20048;-69
2021/12/13 13:16:51;;;;;;;22.10;15.45;;;10.40;99.90;;;;;;5057915;28;20120;-69
2021/12/13 13:19:30;;;;;;;23.27;15.40;;;10.30;99.90;;;;;;5042874;28;20052;-68